Time;durP1;ratioP1;P1;durP2;ratioP2;P2;SDS_P1;SDS_P2;PMS_P1;PMS_P2;Temp;Humidity;BMP_temperature;BMP_pressure;BME280_temperature;BME280_humidity;BME280_pressure;Samples;Min_cycle;Max_cycle;Signal;HPM_P1;HPM_P2
2022/01/15 00:00:27;;;;;;;18.87;8.68;;;;;;;1.86;93.35;100702.00;4499888;31;34891;-81
2022/01/15 00:03:15;;;;;;;17.20;10.18;;;;;;;2.01;93.04;100700.50;4479373;31;35198;-79
2022/01/15 00:06:03;;;;;;;20.77;10.18;;;;;;;1.68;94.45;100700.97;4487742;31;35751;-79
2022/01/15 00:08:52;;;;;;;16.62;9.20;;;;;;;1.74;94.16;100710.84;4476150;32;34391;-79
2022/01/15 00:11:38;;;;;;;20.98;10.60;;;;;;;1.66;94.61;100707.63;4476242;32;35485;-78
2022/01/15 00:14:37;;;;;;;;;;;;;;;1.59;94.73;100710.41;4475999;32;35197;-79
2022/01/15 00:18:39;;;;;;;19.12;10.00;;;;;;;1.89;93.52;100712.34;4489450;31;35674;-79
2022/01/15 00:20:39;;;;;;;15.60;8.23;;;;;;;1.66;94.32;100708.47;4483794;31;34322;-80
2022/01/15 00:23:26;;;;;;;17.92;8.68;;;;;;;1.77;94.04;100710.41;4474722;32;35736;-79
2022/01/15 00:26:12;;;;;;;17.80;9.45;;;;;;;1.86;93.78;100721.72;4474998;32;35178;-79
2022/01/15 00:28:58;;;;;;;18.45;9.20;;;;;;;1.70;94.72;100731.25;4487286;32;34915;-78
2022/01/15 00:31:45;;;;;;;18.00;9.85;;;;;;;1.80;94.07;100728.87;4490043;31;34303;-78
2022/01/15 00:34:32;;;;;;;16.77;8.60;;;;;;;1.68;94.72;100724.41;4479722;32;35624;-80
2022/01/15 00:37:18;;;;;;;16.85;9.23;;;;;;;1.84;94.10;100734.63;4486575;31;35274;-79
2022/01/15 00:40:06;;;;;;;16.52;7.35;;;;;;;1.87;93.81;100730.66;4503222;31;34713;-81
2022/01/15 00:42:52;;;;;;;14.13;8.48;;;;;;;1.85;93.74;100727.34;4480829;32;34187;-81
2022/01/15 00:45:39;;;;;;;14.25;7.40;;;;;;;1.86;93.69;100729.84;4487806;31;35667;-80
2022/01/15 00:48:25;;;;;;;16.60;8.02;;;;;;;1.95;93.21;100733.88;4491131;31;35162;-79
2022/01/15 00:51:12;;;;;;;16.98;8.50;;;;;;;2.01;93.39;100732.13;4488384;32;34600;-84
2022/01/15 00:53:58;;;;;;;12.13;6.82;;;;;;;1.79;94.04;100732.63;4465259;32;34429;-80
2022/01/15 00:56:44;;;;;;;15.65;7.95;;;;;;;2.17;92.79;100750.44;4496237;31;34948;-79
2022/01/15 00:59:30;;;;;;;15.07;7.25;;;;;;;1.89;93.69;100753.69;4491080;31;34980;-79
2022/01/15 01:02:17;;;;;;;16.87;8.30;;;;;;;2.08;92.71;100753.66;4505203;31;34927;-80
2022/01/15 01:05:04;;;;;;;20.23;9.32;;;;;;;1.88;93.56;100760.16;4481055;31;34278;-79
2022/01/15 01:07:50;;;;;;;17.70;8.00;;;;;;;1.93;93.24;100762.19;4492122;31;34842;-80
2022/01/15 01:20:04;;;;;;;13.35;7.85;;;;;;;2.00;92.51;100779.16;4483097;31;34607;-81
2022/01/15 01:20:10;;;;;;;16.30;9.15;;;;;;;2.09;93.01;100777.78;4488288;32;34744;-79
2022/01/15 01:22:57;;;;;;;19.17;8.55;;;;;;;1.66;94.55;100789.50;4490566;31;35011;-81
2022/01/15 01:25:48;;;;;;;16.20;9.27;;;;;;;1.58;95.31;100773.59;4486507;31;34782;-79
2022/01/15 01:28:39;;;;;;;20.08;8.38;;;;;;;1.53;95.62;100773.44;4505346;31;34175;-81
2022/01/15 01:31:35;;;;;;;;;;;;;;;1.50;96.17;100784.69;4492270;31;34840;-80
2022/01/15 01:34:24;;;;;;;18.52;7.37;;;;;;;1.65;95.36;100781.62;4503761;31;35178;-79
2022/01/15 01:37:18;;;;;;;14.77;7.90;;;;;;;1.46;96.49;100799.69;4487508;31;35502;-80
2022/01/15 01:40:27;;;;;;;17.23;8.43;;;;;;;1.54;96.18;100775.91;4490992;31;35409;-80
2022/01/15 01:46:52;;;;;;;18.40;9.25;;;;;;;1.47;96.56;100771.63;4485127;31;35069;-79
2022/01/15 01:49:16;;;;;;;16.62;8.57;;;;;;;1.51;96.60;100753.94;4504798;31;35428;-79
2022/01/15 01:52:02;;;;;;;16.85;9.15;;;;;;;1.45;96.53;100754.81;4491162;31;35119;-82
2022/01/15 01:54:49;;;;;;;19.00;9.02;;;;;;;1.53;96.47;100751.81;4488095;31;34723;-80
2022/01/15 01:57:35;;;;;;;17.85;9.35;;;;;;;1.37;97.22;100738.87;4495106;31;35425;-79
2022/01/15 02:00:24;;;;;;;17.02;9.55;;;;;;;1.58;96.21;100751.97;4482743;31;35322;-80
2022/01/15 02:03:10;;;;;;;16.10;8.25;;;;;;;1.42;96.46;100757.97;4482132;31;34803;-81
2022/01/15 02:05:56;;;;;;;19.42;8.13;;;;;;;1.67;96.48;100757.91;4505685;31;34822;-79
2022/01/15 02:08:42;;;;;;;17.98;8.73;;;;;;;1.67;95.35;100766.84;4495922;31;34780;-80
2022/01/15 02:11:29;;;;;;;17.20;9.95;;;;;;;1.50;95.37;100754.97;4495351;31;34661;-80
2022/01/15 02:14:29;;;;;;;17.98;8.82;;;;;;;1.54;96.10;100756.19;4494357;31;35114;-79
2022/01/15 02:17:18;;;;;;;18.25;9.40;;;;;;;1.42;96.12;100758.78;4484720;31;34789;-82
2022/01/15 02:26:37;;;;;;;20.37;9.07;;;;;;;1.35;96.92;100761.56;4496621;31;34483;-79
2022/01/15 02:29:23;;;;;;;18.40;9.23;;;;;;;1.13;97.18;100768.41;4493133;31;34746;-78
2022/01/15 02:32:09;;;;;;;16.55;8.68;;;;;;;1.08;98.16;100771.78;4505944;31;35494;-80
2022/01/15 02:34:57;;;;;;;17.15;8.88;;;;;;;1.08;98.99;100770.94;4495210;31;34727;-80
2022/01/15 02:37:43;;;;;;;20.35;9.10;;;;;;;1.56;96.20;100767.56;4505838;31;34295;-81
2022/01/15 02:40:33;;;;;;;17.98;9.13;;;;;;;1.13;97.91;100771.09;4507015;31;34823;-80
2022/01/15 02:43:27;;;;;;;17.83;8.98;;;;;;;1.30;95.96;100774.88;4504170;31;34929;-79
2022/01/15 02:46:23;;;;;;;19.08;7.85;;;;;;;0.98;97.62;100776.00;4493831;31;35748;-80
2022/01/15 02:49:09;;;;;;;20.17;9.00;;;;;;;1.10;98.47;100763.44;4507056;31;34343;-79
2022/01/15 02:51:56;;;;;;;19.48;10.30;;;;;;;1.51;95.83;100759.34;4482211;31;34508;-80
2022/01/15 02:54:44;;;;;;;19.27;9.88;;;;;;;0.84;98.25;100762.63;4492412;31;35991;-79
2022/01/15 02:57:30;;;;;;;20.62;9.98;;;;;;;0.59;100.00;100750.97;4504594;31;34899;-79
2022/01/15 03:00:17;;;;;;;21.20;9.80;;;;;;;0.49;100.00;100753.34;4504529;31;34286;-78
2022/01/15 03:03:04;;;;;;;20.92;10.80;;;;;;;0.73;100.00;100749.84;4492347;31;34646;-79
2022/01/15 03:05:50;;;;;;;18.42;8.57;;;;;;;0.22;100.00;100748.09;4492404;31;36061;-79
2022/01/15 03:08:38;;;;;;;21.83;10.63;;;;;;;0.25;100.00;100747.66;4504076;31;34883;-78
2022/01/15 03:11:24;;;;;;;22.48;9.75;;;;;;;0.21;100.00;100744.56;4492202;31;34350;-80
2022/01/15 03:14:13;;;;;;;19.73;9.15;;;;;;;0.24;100.00;100747.88;4504193;31;34789;-77
2022/01/15 03:16:59;;;;;;;21.08;9.43;;;;;;;0.36;100.00;100733.47;4491388;31;35946;-78
2022/01/15 03:20:01;;;;;;;19.33;10.30;;;;;;;0.20;100.00;100736.72;4504682;31;35779;-79
2022/01/15 03:22:47;;;;;;;21.65;9.90;;;;;;;0.09;100.00;100734.69;4480705;31;35101;-79
2022/01/15 03:25:34;;;;;;;18.67;9.23;;;;;;;0.19;100.00;100737.72;4493609;31;35673;-79
2022/01/15 03:28:20;;;;;;;22.50;11.40;;;;;;;0.03;100.00;100743.62;4493615;31;35174;-79
2022/01/15 03:31:07;;;;;;;19.15;9.75;;;;;;;0.04;100.00;100750.69;4504653;31;34703;-80
2022/01/15 03:33:53;;;;;;;18.55;9.13;;;;;;;0.04;100.00;100759.56;4492781;31;35149;-79
2022/01/15 03:36:39;;;;;;;20.35;10.82;;;;;;;0.30;100.00;100755.91;4491912;31;34806;-79
2022/01/15 03:39:25;;;;;;;20.20;10.38;;;;;;;0.29;100.00;100754.28;4493561;31;34923;-79
2022/01/15 03:42:12;;;;;;;19.70;9.45;;;;;;;0.22;100.00;100765.06;4503194;31;34855;-79
2022/01/15 03:44:59;;;;;;;18.35;8.95;;;;;;;0.26;100.00;100768.19;4503955;31;34466;-80
2022/01/15 03:47:46;;;;;;;19.40;8.88;;;;;;;0.55;100.00;100765.94;4490458;31;36051;-79
2022/01/15 03:50:32;;;;;;;19.77;8.95;;;;;;;0.11;100.00;100764.94;4480886;31;35049;-80
2022/01/15 03:53:21;;;;;;;18.23;9.35;;;;;;;0.69;100.00;100764.81;4490333;31;35114;-79
2022/01/15 03:56:08;;;;;;;18.65;8.65;;;;;;;1.38;95.08;100764.88;4490993;31;34468;-80
2022/01/15 03:58:57;;;;;;;18.08;8.65;;;;;;;1.55;92.65;100771.34;4479728;31;34572;-80
2022/01/15 04:01:43;;;;;;;17.62;8.10;;;;;;;1.87;90.15;100780.13;4502974;31;35038;-80
2022/01/15 04:04:30;;;;;;;15.88;8.02;;;;;;;1.96;89.03;100788.75;4504947;31;35601;-80
2022/01/15 04:07:16;;;;;;;18.40;8.70;;;;;;;2.00;87.89;100795.38;4503953;31;35061;-80
2022/01/15 04:10:05;;;;;;;19.30;8.32;;;;;;;2.07;87.95;100800.69;4504188;31;34729;-80
2022/01/15 04:12:54;;;;;;;15.15;7.80;;;;;;;1.63;90.05;100799.94;4492728;31;35943;-80
2022/01/15 04:15:40;;;;;;;18.02;9.02;;;;;;;2.01;87.94;100802.41;4493643;31;34682;-80
2022/01/15 04:18:30;;;;;;;15.13;8.00;;;;;;;1.83;88.16;100800.56;4505894;31;34650;-80
2022/01/15 04:21:16;;;;;;;13.38;6.55;;;;;;;1.18;92.60;100817.16;4493440;31;35739;-81
2022/01/15 04:24:04;;;;;;;16.33;7.25;;;;;;;1.84;89.13;100812.19;4504916;31;35444;-81
2022/01/15 04:26:50;;;;;;;16.67;8.07;;;;;;;2.10;87.67;100811.88;4492658;31;35058;-80
2022/01/15 04:29:40;;;;;;;18.25;7.97;;;;;;;1.67;88.61;100810.06;4482180;31;34095;-80
2022/01/15 04:32:26;;;;;;;16.52;7.93;;;;;;;1.74;89.17;100813.53;4494882;31;34853;-80
2022/01/15 04:35:18;;;;;;;15.43;7.43;;;;;;;1.78;89.62;100820.13;4507165;31;35735;-81
2022/01/15 04:38:11;;;;;;;18.48;8.40;;;;;;;0.93;92.97;100827.94;4494834;31;34624;-81
2022/01/15 04:40:57;;;;;;;16.73;8.32;;;;;;;1.05;92.68;100831.59;4508842;31;34654;-80
2022/01/15 04:43:44;;;;;;;16.52;7.87;;;;;;;0.87;94.78;100824.22;4495607;31;34664;-80
2022/01/15 04:46:31;;;;;;;16.25;8.75;;;;;;;0.44;97.24;100821.38;4507703;31;34202;-80
2022/01/15 04:49:17;;;;;;;17.23;8.55;;;;;;;-0.06;100.00;100824.72;4509461;31;34914;-80
2022/01/15 04:52:04;;;;;;;18.83;8.57;;;;;;;0.03;100.00;100824.44;4497422;31;35498;-80
2022/01/15 04:54:51;;;;;;;19.12;8.75;;;;;;;0.51;100.00;100824.03;4508859;31;35072;-79
2022/01/15 04:57:38;;;;;;;19.62;8.73;;;;;;;0.24;100.00;100831.44;4486834;31;35251;-80
2022/01/15 05:00:24;;;;;;;18.73;8.55;;;;;;;0.06;100.00;100826.72;4474917;31;35483;-80
2022/01/15 05:03:11;;;;;;;17.83;8.95;;;;;;;0.09;100.00;100826.31;4496413;31;35325;-79
2022/01/15 05:05:57;;;;;;;17.30;7.85;;;;;;;-0.01;100.00;100827.56;4508378;31;35214;-79
2022/01/15 05:08:45;;;;;;;19.50;8.48;;;;;;;0.70;100.00;100824.97;4504700;31;36094;-79
2022/01/15 05:11:48;;;;;;;17.25;8.77;;;;;;;0.37;100.00;100824.13;4503711;31;35362;-76
2022/01/15 05:14:37;;;;;;;21.05;10.48;;;;;;;0.36;100.00;100818.94;4503695;31;34156;-79
2022/01/15 05:17:24;;;;;;;15.93;7.40;;;;;;;0.36;100.00;100827.84;4505842;31;34863;-78
2022/01/15 05:20:12;;;;;;;19.65;8.63;;;;;;;0.53;100.00;100828.19;4495118;31;34951;-79
2022/01/15 05:22:58;;;;;;;16.87;7.57;;;;;;;0.45;100.00;100831.94;4492522;31;34557;-79
2022/01/15 05:25:45;;;;;;;16.23;8.30;;;;;;;0.88;99.10;100828.59;4504233;31;34254;-79
2022/01/15 05:28:31;;;;;;;14.80;7.47;;;;;;;0.54;100.00;100823.59;4505037;31;35857;-78
2022/01/15 05:31:17;;;;;;;18.27;9.07;;;;;;;0.74;99.18;100816.25;4506484;31;35937;-79
2022/01/15 05:34:04;;;;;;;17.12;7.68;;;;;;;0.57;99.81;100829.41;4494723;31;34745;-78
2022/01/15 05:36:50;;;;;;;15.98;7.50;;;;;;;0.83;98.47;100825.72;4505811;31;34773;-79
2022/01/15 05:39:37;;;;;;;15.13;7.40;;;;;;;0.54;99.25;100818.22;4494698;31;35560;-80
2022/01/15 05:42:26;;;;;;;16.17;7.40;;;;;;;0.59;98.87;100824.63;4488448;32;34930;-79
2022/01/15 05:45:13;;;;;;;15.35;7.87;;;;;;;0.48;99.52;100835.25;4479204;32;35007;-79
2022/01/15 05:48:00;;;;;;;16.08;7.65;;;;;;;0.51;99.52;100837.53;4476908;32;35319;-80
2022/01/15 05:50:48;;;;;;;16.25;8.18;;;;;;;0.63;98.97;100847.44;4491272;32;36222;-80
2022/01/15 05:53:34;;;;;;;15.43;7.00;;;;;;;0.71;97.23;100851.72;4471183;32;36129;-79
2022/01/15 05:56:21;;;;;;;19.40;7.93;;;;;;;0.65;97.71;100855.28;4492839;32;34661;-78
2022/01/15 05:59:08;;;;;;;18.77;7.12;;;;;;;0.66;97.99;100855.09;4491688;32;34205;-78
2022/01/15 06:01:54;;;;;;;16.98;7.50;;;;;;;0.64;98.43;100864.44;4481626;32;35496;-78
2022/01/15 06:04:40;;;;;;;15.02;7.22;;;;;;;0.61;97.85;100859.47;4493546;32;35426;-79
2022/01/15 06:07:30;;;;;;;16.02;7.30;;;;;;;0.79;96.97;100862.25;4494551;32;34648;-79
2022/01/15 06:10:16;;;;;;;18.40;7.72;;;;;;;1.05;94.89;100858.59;4480446;32;34119;-78
2022/01/15 06:13:05;;;;;;;16.27;8.43;;;;;;;0.51;98.51;100868.00;4491258;32;35687;-78
2022/01/15 06:15:51;;;;;;;15.50;7.43;;;;;;;0.30;98.83;100871.03;4491192;32;34992;-79
2022/01/15 06:18:37;;;;;;;19.10;7.70;;;;;;;0.68;98.19;100873.75;4479843;32;35609;-79
2022/01/15 06:21:23;;;;;;;17.42;7.28;;;;;;;0.45;98.75;100874.25;4489833;32;34508;-78
2022/01/15 06:24:10;;;;;;;18.30;7.62;;;;;;;0.52;97.49;100875.09;4489434;32;35078;-76
2022/01/15 06:26:56;;;;;;;18.05;6.95;;;;;;;0.50;97.80;100881.72;4488895;32;34962;-78
2022/01/15 06:29:42;;;;;;;12.65;6.95;;;;;;;0.68;97.19;100881.84;4475494;32;35464;-78
2022/01/15 06:32:29;;;;;;;18.73;7.28;;;;;;;0.39;98.57;100881.34;4476341;32;34698;-77
2022/01/15 06:35:19;;;;;;;14.93;7.20;;;;;;;0.68;96.08;100879.12;4487379;32;35143;-77
2022/01/15 06:38:08;;;;;;;14.98;6.93;;;;;;;0.59;97.15;100885.81;4490383;32;35036;-79
2022/01/15 06:40:57;;;;;;;15.18;7.40;;;;;;;0.69;96.71;100890.78;4469510;32;34792;-80
2022/01/15 06:43:47;;;;;;;14.27;6.93;;;;;;;0.38;97.57;100886.97;4478959;32;34591;-80
2022/01/15 06:46:33;;;;;;;14.93;6.68;;;;;;;0.78;96.65;100887.59;4489362;32;35510;-78
2022/01/15 06:49:20;;;;;;;13.77;6.35;;;;;;;0.44;97.98;100884.22;4465932;32;34956;-79
2022/01/15 06:52:06;;;;;;;14.40;7.82;;;;;;;0.52;97.86;100887.75;4476525;32;35391;-78
2022/01/15 06:54:53;;;;;;;18.58;7.35;;;;;;;0.70;97.84;100897.81;4477576;32;34352;-79
2022/01/15 06:57:39;;;;;;;15.93;6.95;;;;;;;0.25;99.05;100895.91;4490134;32;34858;-79
2022/01/15 07:00:26;;;;;;;14.52;7.25;;;;;;;0.60;97.66;100901.00;4490277;32;35267;-78
2022/01/15 07:03:12;;;;;;;18.08;7.90;;;;;;;0.26;98.98;100900.28;4489422;32;35490;-78
2022/01/15 07:05:59;;;;;;;18.55;8.15;;;;;;;0.32;99.17;100899.44;4489210;32;35629;-79
2022/01/15 07:08:45;;;;;;;17.42;7.07;;;;;;;0.31;97.91;100905.84;4486255;32;34689;-78
2022/01/15 07:11:32;;;;;;;20.55;8.45;;;;;;;0.67;97.10;100905.28;4488999;31;35935;-79
2022/01/15 07:14:19;;;;;;;16.25;7.20;;;;;;;0.41;97.65;100910.81;4502020;31;34706;-78
2022/01/15 07:17:05;;;;;;;18.00;7.03;;;;;;;0.65;96.58;100906.53;4502095;31;34268;-79
2022/01/15 07:19:51;;;;;;;15.55;7.28;;;;;;;0.45;97.49;100903.94;4490002;31;34583;-79
2022/01/15 07:22:38;;;;;;;16.08;7.40;;;;;;;0.61;96.66;100913.41;4502001;31;35933;-78
2022/01/15 07:25:25;;;;;;;17.17;6.53;;;;;;;0.53;97.41;100905.56;4490237;31;34602;-79
2022/01/15 07:28:12;;;;;;;14.93;7.30;;;;;;;0.51;96.98;100921.13;4490161;31;34998;-79
2022/01/15 07:30:59;;;;;;;15.80;7.80;;;;;;;0.87;95.32;100918.69;4499667;31;34756;-78
2022/01/15 07:33:45;;;;;;;16.08;7.25;;;;;;;0.77;95.59;100912.94;4481854;31;34940;-80
2022/01/15 07:36:31;;;;;;;13.73;6.47;;;;;;;0.68;96.00;100914.19;4489824;31;34769;-78
2022/01/15 07:39:18;;;;;;;14.15;7.05;;;;;;;0.57;96.12;100912.19;4490033;31;34487;-77
2022/01/15 07:42:05;;;;;;;15.55;7.10;;;;;;;0.70;95.98;100917.53;4474173;32;34922;-78
2022/01/15 07:44:51;;;;;;;14.63;7.37;;;;;;;1.03;93.76;100917.34;4490202;31;34937;-82
2022/01/15 07:47:38;;;;;;;16.92;7.53;;;;;;;0.72;95.00;100915.44;4490180;31;34562;-82
2022/01/15 07:50:25;;;;;;;13.40;6.80;;;;;;;0.92;94.17;100917.22;4474451;32;34285;-78
2022/01/15 07:53:11;;;;;;;17.08;7.80;;;;;;;1.05;92.96;100926.06;4486167;32;34711;-79
2022/01/15 07:55:57;;;;;;;15.40;7.47;;;;;;;0.98;93.07;100932.53;4486132;32;34971;-80
2022/01/15 07:58:43;;;;;;;17.55;7.60;;;;;;;1.08;92.30;100938.28;4474005;32;34501;-82
2022/01/15 08:01:30;;;;;;;13.88;6.10;;;;;;;1.33;91.01;100952.66;4488656;31;34237;-79
2022/01/15 08:04:16;;;;;;;13.07;5.28;;;;;;;1.26;91.35;100946.50;4499443;31;34631;-80
2022/01/15 08:07:03;;;;;;;15.23;6.80;;;;;;;1.53;89.66;100947.12;4501627;31;35028;-81
2022/01/15 08:09:49;;;;;;;14.07;5.62;;;;;;;1.34;90.43;100948.94;4501746;31;34721;-80
2022/01/15 08:12:44;;;;;;;14.93;5.95;;;;;;;1.73;88.72;100948.84;4501510;31;34125;-79
2022/01/15 08:15:33;;;;;;;14.95;6.18;;;;;;;1.78;87.71;100959.84;4488099;31;35588;-80
2022/01/15 08:18:21;;;;;;;17.27;6.25;;;;;;;1.94;86.02;100961.16;4485757;32;35074;-80
2022/01/15 08:21:08;;;;;;;11.45;5.35;;;;;;;1.76;86.67;100968.16;4473971;32;34809;-80
2022/01/15 08:23:54;;;;;;;13.20;5.68;;;;;;;2.05;85.67;100954.19;4485382;31;35134;-80
2022/01/15 08:26:40;;;;;;;15.35;5.53;;;;;;;2.06;84.93;100959.37;4480489;31;35546;-81
2022/01/15 08:29:27;;;;;;;13.90;5.75;;;;;;;1.90;85.23;100963.47;4495969;31;35023;-79
2022/01/15 08:32:13;;;;;;;13.65;4.45;;;;;;;1.93;84.93;100963.00;4486759;31;34865;-82
2022/01/15 08:34:59;;;;;;;12.77;6.82;;;;;;;2.06;82.96;100981.00;4496018;31;35233;-80
2022/01/15 08:37:46;;;;;;;11.05;5.03;;;;;;;2.04;83.99;100964.19;4501554;31;34687;-79
2022/01/15 08:40:33;;;;;;;11.38;5.05;;;;;;;2.33;82.85;100969.94;4501462;31;35898;-79
2022/01/15 08:43:19;;;;;;;10.95;5.55;;;;;;;2.13;82.56;100968.25;4492815;31;34628;-81
2022/01/15 08:46:06;;;;;;;13.43;5.30;;;;;;;2.26;81.87;100975.41;4482644;32;34278;-80
2022/01/15 08:48:53;;;;;;;10.52;4.55;;;;;;;2.23;81.59;100973.97;4473598;32;35502;-81
2022/01/15 08:51:39;;;;;;;10.52;4.75;;;;;;;2.48;81.30;100965.00;4473581;32;34999;-80
2022/01/15 08:54:26;;;;;;;12.25;4.60;;;;;;;2.82;80.54;100971.69;4472961;32;34645;-81
2022/01/15 08:57:12;;;;;;;8.85;4.40;;;;;;;2.65;80.69;100965.22;4484331;32;34211;-81
2022/01/15 08:59:59;;;;;;;9.30;4.80;;;;;;;2.65;80.20;100960.62;4484325;32;35538;-79
2022/01/15 09:02:46;;;;;;;12.18;4.18;;;;;;;3.05;78.23;100970.16;4485110;32;35955;-80
2022/01/15 09:05:34;;;;;;;8.63;4.12;;;;;;;2.88;78.82;100959.13;4472734;32;35470;-81
2022/01/15 09:08:27;;;;;;;12.45;4.60;;;;;;;2.85;78.10;100962.28;4472643;32;34931;-79
2022/01/15 09:11:14;;;;;;;10.45;4.25;;;;;;;2.84;77.99;100957.91;4472941;32;34852;-79
2022/01/15 09:14:00;;;;;;;13.00;4.90;;;;;;;3.02;77.16;100955.19;4484493;32;34847;-83
2022/01/15 09:16:47;;;;;;;9.85;3.28;;;;;;;3.34;76.16;100954.94;4484250;32;35521;-79
2022/01/15 09:19:34;;;;;;;15.70;4.30;;;;;;;3.13;76.59;100949.00;4487754;31;34173;-79
2022/01/15 09:22:24;;;;;;;10.93;4.10;;;;;;;3.52;74.86;100960.28;4500202;31;35444;-79
2022/01/15 09:25:13;;;;;;;8.38;3.03;;;;;;;3.28;74.13;100953.16;4477178;32;35984;-81
2022/01/15 09:31:04;;;;;;;7.25;3.17;;;;;;;3.33;73.14;100939.72;4472273;31;35271;-81
2022/01/15 09:33:50;;;;;;;11.52;3.53;;;;;;;3.54;72.49;100944.63;4486662;31;35630;-79
2022/01/15 09:36:36;;;;;;;9.23;3.20;;;;;;;3.51;71.74;100953.22;4490706;31;34968;-79
2022/01/15 09:39:23;;;;;;;8.77;2.40;;;;;;;3.45;70.61;100951.44;4474301;31;34578;-78
2022/01/15 09:42:13;;;;;;;9.00;3.05;;;;;;;3.12;72.16;100952.72;4482077;31;34156;-80
2022/01/15 09:45:02;;;;;;;7.62;2.87;;;;;;;3.40;71.21;100950.47;4478834;31;34598;-80
2022/01/15 09:47:54;;;;;;;10.60;2.90;;;;;;;3.56;70.13;100939.81;4486370;31;34805;-77
2022/01/15 09:50:43;;;;;;;8.65;2.80;;;;;;;3.43;70.20;100936.47;4483804;31;35250;-79
2022/01/15 09:53:29;;;;;;;10.07;3.05;;;;;;;3.39;69.95;100933.41;4477587;31;34157;-80
2022/01/15 09:56:20;;;;;;;9.50;3.13;;;;;;;3.49;69.41;100939.06;4483252;31;34671;-79
2022/01/15 09:59:06;;;;;;;7.47;3.22;;;;;;;3.49;68.73;100922.00;4473511;31;35940;-82
2022/01/15 10:01:53;;;;;;;10.60;2.70;;;;;;;3.62;68.17;100923.69;4486213;31;34706;-77
2022/01/15 10:04:40;;;;;;;8.15;3.08;;;;;;;3.68;67.62;100926.25;4475997;31;34144;-77
2022/01/15 10:07:29;;;;;;;6.93;2.53;;;;;;;3.93;67.21;100926.06;4495699;31;34573;-77
2022/01/15 10:10:18;;;;;;;11.60;3.30;;;;;;;4.10;65.77;100914.47;4483796;32;34969;-77
2022/01/15 10:13:14;;;;;;;12.23;3.50;;;;;;;4.32;65.70;100914.69;4463676;32;34666;-75
2022/01/15 10:16:02;;;;;;;11.88;3.83;;;;;;;4.31;64.17;100913.88;4492031;31;34195;-75
2022/01/15 10:18:48;;;;;;;12.13;3.30;;;;;;;4.02;64.42;100911.06;4486457;32;35588;-75
2022/01/15 10:21:37;;;;;;;8.90;2.78;;;;;;;3.81;64.71;100920.63;4495247;31;36021;-75
2022/01/15 10:24:27;;;;;;;13.32;3.53;;;;;;;4.26;63.63;100920.00;4489625;31;34848;-74
2022/01/15 10:27:29;;;;;;;6.62;2.83;;;;;;;4.27;63.55;100913.53;4475184;31;34321;-75
2022/01/15 10:30:25;;;;;;;8.98;2.72;;;;;;;4.60;62.31;100905.78;4489261;31;35469;-75
2022/01/15 10:33:12;;;;;;;5.53;2.62;;;;;;;4.31;61.73;100913.88;4474729;31;35010;-75
2022/01/15 10:35:59;;;;;;;10.50;2.60;;;;;;;4.16;61.67;100903.53;4488127;31;35550;-76
2022/01/15 10:38:45;;;;;;;8.45;3.40;;;;;;;4.03;61.98;100903.75;4492371;31;34255;-77
2022/01/15 10:41:34;;;;;;;12.25;3.30;;;;;;;4.14;61.57;100905.63;4485728;32;35507;-76
2022/01/15 10:44:35;;;;;;;12.05;3.35;;;;;;;4.21;61.39;100911.78;4475127;31;35832;-77
2022/01/15 10:47:26;;;;;;;11.40;3.55;;;;;;;4.23;60.35;100906.91;4475784;32;34677;-77
2022/01/15 10:50:22;;;;;;;8.95;2.50;;;;;;;4.06;60.67;100911.41;4490555;31;34311;-77
2022/01/15 10:53:10;;;;;;;7.18;2.25;;;;;;;4.18;60.19;100898.66;4485346;31;34722;-78
2022/01/15 10:55:56;;;;;;;10.07;2.75;;;;;;;4.28;59.53;100904.31;4483763;31;34966;-78
2022/01/15 10:58:43;;;;;;;7.40;2.50;;;;;;;4.31;59.35;100892.16;4485284;31;35606;-78
2022/01/15 11:01:32;;;;;;;7.72;2.40;;;;;;;4.30;59.03;100904.09;4491964;31;34192;-80
2022/01/15 11:04:33;;;;;;;7.78;2.58;;;;;;;4.20;59.08;100896.53;4496252;31;35613;-78
2022/01/15 11:07:20;;;;;;;11.00;2.62;;;;;;;4.22;59.62;100893.59;4475618;32;35942;-77
2022/01/15 11:10:10;;;;;;;7.43;2.45;;;;;;;4.35;59.49;100884.37;4476167;31;34323;-77
2022/01/15 11:12:57;;;;;;;8.30;2.53;;;;;;;4.76;58.16;100883.31;4478496;32;34180;-79
2022/01/15 11:15:46;;;;;;;9.38;2.72;;;;;;;4.58;58.90;100886.19;4492194;31;34752;-79
2022/01/15 11:18:38;;;;;;;8.27;2.85;;;;;;;4.74;58.86;100874.59;4493951;31;35071;-77
2022/01/15 11:21:29;;;;;;;7.05;1.87;;;;;;;4.55;59.11;100883.97;4498565;31;34885;-77
2022/01/15 11:24:17;;;;;;;8.80;3.22;;;;;;;4.42;59.43;100866.91;4480709;31;34274;-77
2022/01/15 11:27:06;;;;;;;10.13;3.50;;;;;;;4.49;59.22;100870.28;4482779;31;34694;-78
2022/01/15 11:29:57;;;;;;;8.40;2.78;;;;;;;4.49;58.92;100870.28;4476679;31;34972;-77
2022/01/15 11:32:46;;;;;;;6.50;2.47;;;;;;;4.41;59.72;100870.69;4493996;31;34586;-77
2022/01/15 11:35:51;;;;;;;7.28;3.00;;;;;;;4.44;60.20;100875.62;4483139;31;35010;-78
2022/01/15 11:38:46;;;;;;;9.05;2.87;;;;;;;4.59;60.30;100869.69;4489084;31;35526;-78
2022/01/15 11:41:32;;;;;;;8.52;3.03;;;;;;;4.73;60.12;100879.19;4480486;31;35928;-77
2022/01/15 11:44:28;;;;;;;8.25;3.15;;;;;;;4.84;60.33;100880.22;4477939;32;35449;-79
2022/01/15 11:47:20;;;;;;;9.57;3.15;;;;;;;4.99;59.89;100881.56;4488518;31;35024;-76
2022/01/15 11:50:20;;;;;;;5.65;2.17;;;;;;;4.89;60.55;100884.91;4496599;31;35880;-77
2022/01/15 11:53:09;;;;;;;8.68;2.50;;;;;;;4.67;60.81;100874.75;4465900;31;35016;-79
2022/01/15 11:56:18;;;;;;;8.20;2.67;;;;;;;4.58;61.19;100880.78;4493645;31;33258;-77
2022/01/15 11:59:23;;;;;;;8.98;3.03;;;;;;;4.87;60.38;100868.06;4480808;31;34187;-81
2022/01/15 12:02:26;;;;;;;9.07;2.85;;;;;;;4.73;60.62;100865.62;4501758;31;34697;-78
2022/01/15 12:05:15;;;;;;;11.38;2.25;;;;;;;5.19;60.12;100865.62;4473673;32;36010;-78
2022/01/15 12:08:04;;;;;;;10.63;2.75;;;;;;;5.05;59.13;100864.28;4492947;31;34720;-78
2022/01/15 12:10:54;;;;;;;8.98;3.20;;;;;;;5.11;59.19;100855.16;4493561;31;35050;-77
2022/01/15 12:13:46;;;;;;;7.40;3.65;;;;;;;4.86;61.90;100867.19;4493201;31;34606;-78
2022/01/15 12:16:40;;;;;;;7.40;2.53;;;;;;;4.84;63.10;100850.34;4490284;31;35974;-77
2022/01/15 12:19:36;;;;;;;10.02;2.87;;;;;;;4.99;61.65;100849.81;4487708;31;33662;-77
2022/01/15 12:22:45;;;;;;;8.70;3.15;;;;;;;5.12;60.31;100848.66;4480422;31;34412;-77
2022/01/15 12:25:34;;;;;;;9.70;4.05;;;;;;;5.28;60.19;100853.28;4488908;31;34693;-77
2022/01/15 12:28:27;;;;;;;10.25;4.43;;;;;;;5.08;61.74;100850.22;4481414;31;34514;-78
2022/01/15 12:31:16;;;;;;;6.90;2.70;;;;;;;4.82;62.63;100855.19;4490725;31;35431;-77
2022/01/15 12:34:02;;;;;;;6.50;2.75;;;;;;;4.86;62.96;100850.91;4491686;31;34171;-77
2022/01/15 12:36:48;;;;;;;7.55;2.60;;;;;;;4.88;61.62;100851.50;4484859;31;34580;-78
2022/01/15 12:39:39;;;;;;;6.18;2.35;;;;;;;5.06;60.75;100847.72;4494878;31;36116;-76
2022/01/15 12:42:30;;;;;;;10.20;2.65;;;;;;;4.89;59.68;100846.87;4466104;31;35420;-77
2022/01/15 12:45:17;;;;;;;5.80;2.50;;;;;;;5.04;59.55;100840.91;4474967;31;35126;-80
2022/01/15 12:48:04;;;;;;;8.27;2.35;;;;;;;4.86;59.23;100840.03;4467707;31;35423;-77
2022/01/15 12:50:55;;;;;;;6.65;2.62;;;;;;;4.88;60.02;100832.50;4488007;31;36018;-77
2022/01/15 12:53:49;;;;;;;9.05;3.70;;;;;;;4.98;59.40;100831.88;4467482;31;34672;-82
2022/01/15 12:56:39;;;;;;;7.90;3.25;;;;;;;4.78;59.54;100824.19;4475027;32;34184;-80
2022/01/15 12:59:27;;;;;;;11.60;3.42;;;;;;;4.59;61.21;100818.09;4476363;31;34170;-83
2022/01/15 13:02:14;;;;;;;8.85;4.60;;;;;;;4.78;60.95;100818.75;4478088;31;34933;-78
2022/01/15 13:05:00;;;;;;;13.20;6.47;;;;;;;4.80;60.55;100813.06;4490006;31;35519;-79
2022/01/15 13:08:04;;;;;;;7.40;3.00;;;;;;;4.80;58.77;100830.16;4487022;31;35290;-77
2022/01/15 13:10:54;;;;;;;9.18;3.50;;;;;;;4.82;58.03;100808.22;4480050;31;34124;-79
2022/01/15 13:13:43;;;;;;;11.30;3.80;;;;;;;4.87;57.23;100817.28;4478332;31;35971;-78
2022/01/15 13:16:31;;;;;;;8.32;4.15;;;;;;;4.70;57.40;100824.56;4479495;31;35614;-79
2022/01/15 13:19:17;;;;;;;9.13;3.95;;;;;;;4.76;58.01;100801.88;4495408;31;34412;-79
2022/01/15 13:22:03;;;;;;;5.78;2.60;;;;;;;4.83;57.96;100816.09;4477478;32;34562;-77
2022/01/15 13:24:58;;;;;;;11.48;3.50;;;;;;;4.92;57.69;100806.50;4477209;32;35173;-82